createdAt,value
2023-04-16T00:00:07.914Z,32.73
2023-04-16T00:02:41.761Z,29.43
2023-04-16T00:05:10.480Z,31.23
2023-04-16T00:07:39.838Z,34.03
2023-04-16T00:10:09.058Z,30.40
2023-04-16T00:12:37.533Z,29.40
2023-04-16T00:15:06.103Z,31.23
2023-04-16T00:17:34.160Z,35.47
2023-04-16T00:20:02.353Z,30.53
2023-04-16T00:22:30.379Z,33.90
2023-04-16T00:24:59.681Z,30.50
2023-04-16T00:27:28.173Z,31.47
2023-04-16T00:29:56.120Z,31.07
2023-04-16T00:32:24.592Z,32.67
2023-04-16T00:34:52.673Z,32.67
2023-04-16T00:37:20.782Z,34.73
2023-04-16T00:39:48.828Z,32.23
2023-04-16T00:42:18.309Z,32.97
2023-04-16T00:44:46.308Z,31.80
2023-04-16T00:47:14.362Z,30.73
2023-04-16T00:49:42.462Z,29.27
2023-04-16T00:52:12.717Z,30.23
2023-04-16T00:54:41.984Z,30.13
2023-04-16T00:57:11.106Z,26.50
2023-04-16T00:59:40.480Z,28.30
2023-04-16T01:02:08.615Z,31.87
2023-04-16T01:04:36.885Z,28.80
2023-04-16T01:07:04.938Z,32.83
2023-04-16T01:09:33.020Z,32.03
2023-04-16T01:12:02.114Z,28.70
2023-04-16T01:14:31.775Z,26.63
2023-04-16T01:17:01.631Z,27.10
2023-04-16T01:19:31.193Z,23.00
2023-04-16T01:22:00.620Z,24.80
2023-04-16T01:24:28.759Z,27.77
2023-04-16T01:26:58.988Z,26.83
2023-04-16T01:29:27.167Z,23.92
2023-04-16T01:31:57.862Z,28.50
2023-04-16T01:34:37.633Z,26.80
2023-04-16T01:37:07.018Z,28.20
2023-04-16T01:39:34.977Z,26.57
2023-04-16T01:42:03.124Z,27.03
2023-04-16T01:44:31.839Z,27.20
2023-04-16T01:46:59.809Z,26.43
2023-04-16T01:49:28.016Z,26.17
2023-04-16T01:51:55.986Z,22.70
2023-04-16T01:54:25.651Z,29.37
2023-04-16T01:56:53.622Z,26.50
2023-04-16T01:59:25.108Z,27.47
2023-04-16T02:01:53.193Z,25.77
2023-04-16T02:04:21.424Z,25.33
2023-04-16T02:06:49.424Z,25.30
2023-04-16T02:09:17.408Z,26.23
2023-04-16T02:11:46.937Z,23.90
2023-04-16T02:14:15.319Z,24.67
2023-04-16T02:16:43.886Z,25.13
2023-04-16T02:19:28.530Z,23.23
2023-04-16T02:21:56.981Z,21.43
2023-04-16T02:24:24.930Z,21.70
2023-04-16T02:26:55.134Z,27.07
2023-04-16T02:29:23.132Z,23.60
2023-04-16T02:32:00.655Z,22.67
2023-04-16T02:34:29.966Z,28.50
2023-04-16T02:36:59.393Z,25.40
2023-04-16T02:39:27.742Z,28.43
2023-04-16T02:41:57.998Z,24.53
2023-04-16T02:44:26.207Z,23.47
2023-04-16T02:46:54.178Z,28.60
2023-04-16T02:49:22.412Z,25.93
2023-04-16T02:51:50.521Z,22.03
2023-04-16T02:54:18.579Z,26.07
2023-04-16T02:56:46.621Z,25.97
2023-04-16T02:59:15.958Z,23.80
2023-04-16T03:01:44.093Z,24.67
2023-04-16T03:04:12.228Z,23.33
2023-04-16T03:06:40.418Z,21.77
2023-04-16T03:09:09.411Z,26.03
2023-04-16T03:11:37.491Z,25.87
2023-04-16T03:14:06.281Z,23.47
2023-04-16T03:16:35.657Z,23.47
2023-04-16T03:19:03.672Z,19.67
2023-04-16T03:21:31.792Z,24.80
2023-04-16T03:24:00.144Z,20.90
2023-04-16T03:26:28.194Z,24.07
2023-04-16T03:28:56.904Z,21.90
2023-04-16T03:32:39.795Z,19.40
2023-04-16T03:35:10.751Z,22.03
2023-04-16T03:37:38.757Z,22.42
2023-04-16T03:40:08.183Z,20.97
2023-04-16T03:42:36.244Z,21.70
2023-04-16T03:45:04.801Z,21.83
2023-04-16T03:47:33.514Z,25.33
2023-04-16T03:50:04.320Z,21.83
2023-04-16T03:52:33.737Z,20.27
2023-04-16T03:55:03.825Z,19.40
2023-04-16T03:57:33.058Z,17.83
2023-04-16T04:00:08.781Z,21.03
2023-04-16T04:02:43.129Z,20.00
2023-04-16T04:05:18.539Z,20.73
2023-04-16T04:07:49.303Z,19.10
2023-04-16T04:10:17.458Z,21.17
2023-04-16T04:12:45.594Z,22.73
2023-04-16T04:15:13.957Z,24.33
2023-04-16T04:17:43.677Z,21.57
2023-04-16T04:20:13.216Z,20.37
2023-04-16T04:22:43.235Z,21.37
2023-04-16T04:25:14.687Z,20.97
2023-04-16T04:27:42.757Z,22.87
2023-04-16T04:30:11.940Z,20.20
2023-04-16T04:32:41.102Z,21.63
2023-04-16T04:35:10.710Z,18.63
2023-04-16T04:37:38.701Z,21.17
2023-04-16T04:40:21.103Z,16.80
2023-04-16T04:42:49.177Z,20.73
2023-04-16T04:45:17.257Z,21.40
2023-04-16T04:47:45.408Z,20.17
2023-04-16T04:50:13.421Z,22.47
2023-04-16T04:52:42.248Z,19.53
2023-04-16T04:55:10.596Z,20.83
2023-04-16T04:57:40.165Z,20.93
2023-04-16T05:00:09.886Z,18.47
2023-04-16T05:02:44.446Z,20.57
2023-04-16T05:05:12.534Z,20.13
2023-04-16T05:07:40.542Z,22.73
2023-04-16T05:10:10.157Z,24.30
2023-04-16T05:13:04.621Z,17.43
2023-04-16T05:15:32.559Z,20.60
2023-04-16T05:18:00.587Z,19.20
2023-04-16T05:20:28.644Z,17.93
2023-04-16T05:22:56.704Z,20.60
2023-04-16T05:25:24.975Z,23.93
2023-04-16T05:27:52.955Z,25.53
2023-04-16T05:30:22.278Z,22.27
2023-04-16T05:32:50.400Z,22.47
2023-04-16T05:35:18.452Z,20.87
2023-04-16T05:37:46.498Z,24.80
2023-04-16T05:40:15.273Z,23.40
2023-04-16T05:42:43.208Z,19.80
2023-04-16T05:45:11.886Z,18.53
2023-04-16T05:47:41.246Z,21.53
2023-04-16T05:50:09.832Z,23.87
2023-04-16T05:52:37.785Z,22.23
2023-04-16T05:55:06.231Z,23.07
2023-04-16T05:57:34.437Z,24.90
2023-04-16T06:00:02.425Z,23.70
2023-04-16T06:02:41.648Z,23.80
2023-04-16T06:05:10.146Z,25.57
2023-04-16T06:07:38.201Z,25.13
2023-04-16T06:10:07.050Z,26.93
2023-04-16T06:12:35.137Z,26.13
2023-04-16T06:15:03.720Z,22.70
2023-04-16T06:17:31.707Z,24.00
2023-04-16T06:20:01.055Z,27.93
2023-04-16T06:22:29.456Z,28.33
2023-04-16T06:24:57.418Z,28.03
2023-04-16T06:27:25.911Z,27.30
2023-04-16T06:29:53.865Z,33.37
2023-04-16T06:32:21.909Z,31.23
2023-04-16T06:34:49.911Z,30.80
2023-04-16T06:37:19.270Z,24.53
2023-04-16T06:39:47.223Z,27.87
2023-04-16T06:42:15.489Z,22.37
2023-04-16T06:44:44.316Z,23.33
2023-04-16T06:47:12.305Z,27.13
2023-04-16T06:49:40.518Z,28.77
2023-04-16T06:52:08.566Z,22.73
2023-04-16T06:54:37.987Z,26.20
2023-04-16T06:57:06.010Z,28.47
2023-04-16T06:59:33.959Z,25.43
2023-04-16T07:02:02.133Z,25.93
2023-04-16T07:04:30.269Z,24.33
2023-04-16T07:06:58.237Z,26.20
2023-04-16T07:09:26.831Z,21.80
2023-04-16T07:11:56.315Z,23.97
2023-04-16T07:14:24.314Z,25.70
2023-04-16T07:16:52.312Z,21.27
2023-04-16T07:19:20.406Z,22.50
2023-04-16T07:21:48.413Z,24.57
2023-04-16T07:24:16.368Z,21.23
2023-04-16T07:26:44.299Z,25.07
2023-04-16T07:29:13.803Z,21.87
2023-04-16T07:31:41.907Z,22.43
2023-04-16T07:34:09.849Z,24.83
2023-04-16T07:36:37.759Z,22.35
2023-04-16T07:39:06.271Z,21.52
2023-04-16T07:41:34.482Z,20.08
2023-04-16T07:44:02.620Z,24.90
2023-04-16T07:46:45.699Z,19.95
2023-04-16T07:49:15.464Z,17.13
2023-04-16T07:51:43.549Z,23.23
2023-04-16T07:54:11.811Z,18.52
2023-04-16T07:56:39.928Z,19.98
2023-04-16T07:59:19.150Z,17.33
2023-04-16T08:01:54.213Z,14.55
2023-04-16T08:06:54.439Z,14.38
2023-04-16T08:09:27.879Z,16.60
2023-04-16T08:11:55.962Z,14.55
2023-04-16T08:14:23.964Z,15.02
2023-04-16T08:16:53.471Z,15.93
2023-04-16T08:19:21.665Z,13.30
2023-04-16T08:21:49.668Z,14.23
2023-04-16T08:24:17.755Z,19.00
2023-04-16T08:26:45.875Z,14.40
2023-04-16T08:29:13.992Z,17.23
2023-04-16T08:31:42.384Z,15.88
2023-04-16T08:34:12.479Z,21.77
2023-04-16T08:36:41.433Z,18.25
2023-04-16T08:39:09.999Z,19.13
2023-04-16T08:41:42.201Z,17.20
2023-04-16T08:44:13.040Z,16.92
2023-04-16T08:46:42.503Z,17.33
2023-04-16T08:49:18.903Z,16.92
2023-04-16T08:51:52.348Z,12.90
2023-04-16T08:54:32.181Z,12.95
2023-04-16T08:57:01.404Z,11.50
2023-04-16T08:59:30.541Z,9.23
2023-04-16T09:02:00.222Z,8.15
2023-04-16T09:04:30.282Z,8.98
2023-04-16T09:06:59.927Z,9.07
2023-04-16T09:09:28.259Z,7.93
2023-04-16T09:11:57.186Z,7.35
2023-04-16T09:14:25.484Z,5.85
2023-04-16T09:16:54.812Z,7.18
2023-04-16T09:19:22.771Z,10.25
2023-04-16T09:21:52.120Z,11.90
2023-04-16T09:24:20.350Z,9.52
2023-04-16T09:26:49.818Z,7.97
2023-04-16T09:29:34.627Z,9.85
2023-04-16T09:32:04.240Z,9.20
2023-04-16T09:34:33.860Z,6.95
2023-04-16T09:37:19.163Z,8.38
2023-04-16T09:39:54.696Z,6.00
2023-04-16T09:42:24.965Z,7.18
2023-04-16T09:44:53.988Z,7.63
2023-04-16T09:47:23.344Z,7.13
2023-04-16T09:49:51.425Z,9.60
2023-04-16T09:52:24.045Z,5.45
2023-04-16T09:54:54.088Z,8.40
2023-04-16T09:57:23.099Z,4.65
2023-04-16T09:59:54.360Z,5.07
2023-04-16T10:02:23.782Z,3.90
2023-04-16T10:04:53.614Z,3.65
2023-04-16T10:07:23.196Z,3.70
2023-04-16T10:09:52.598Z,3.45
2023-04-16T10:12:21.584Z,3.28
2023-04-16T10:14:50.419Z,4.93
2023-04-16T10:17:18.752Z,4.05
2023-04-16T10:19:47.147Z,5.97
2023-04-16T10:22:15.333Z,3.22
2023-04-16T10:24:45.105Z,2.90
2023-04-16T10:27:13.449Z,3.38
2023-04-16T10:29:41.858Z,2.75
2023-04-16T10:32:10.336Z,4.63
2023-04-16T10:34:38.629Z,2.85
2023-04-16T10:37:06.678Z,2.28
2023-04-16T10:39:38.398Z,2.13
2023-04-16T10:42:12.205Z,2.08
2023-04-16T10:44:44.382Z,3.88
2023-04-16T10:47:15.169Z,4.90
2023-04-16T10:49:43.740Z,2.63
2023-04-16T10:52:13.513Z,3.97
2023-04-16T10:54:42.183Z,2.97
2023-04-16T10:57:18.710Z,3.22
2023-04-16T10:59:47.246Z,2.65
2023-04-16T11:02:17.573Z,4.68
2023-04-16T11:04:47.261Z,4.47
2023-04-16T11:07:20.898Z,5.05
2023-04-16T11:10:00.455Z,6.40
2023-04-16T11:12:37.326Z,4.82
2023-04-16T11:15:07.149Z,12.15
2023-04-16T11:17:38.890Z,4.32
2023-04-16T11:20:17.398Z,4.75
2023-04-16T11:22:48.725Z,3.15
2023-04-16T11:25:21.853Z,2.58
2023-04-16T11:27:51.967Z,4.13
2023-04-16T11:30:29.518Z,3.53
2023-04-16T11:32:57.674Z,4.00
2023-04-16T11:35:26.239Z,3.10
2023-04-16T11:37:57.487Z,2.97
2023-04-16T11:40:26.167Z,5.45
2023-04-16T11:42:55.571Z,3.65
2023-04-16T11:45:23.548Z,3.88
2023-04-16T11:47:56.902Z,4.18
2023-04-16T11:50:27.364Z,4.35
2023-04-16T11:52:56.891Z,3.75
2023-04-16T11:55:25.924Z,2.70
2023-04-16T11:57:55.912Z,2.97
2023-04-16T12:00:24.411Z,2.50
2023-04-16T12:02:54.545Z,5.10
2023-04-16T12:05:31.012Z,6.22
2023-04-16T12:08:00.484Z,3.88
2023-04-16T12:10:29.177Z,3.42
2023-04-16T12:13:11.498Z,4.75
2023-04-16T12:15:47.198Z,5.07
2023-04-16T12:18:16.145Z,3.85
2023-04-16T12:20:45.329Z,5.20
2023-04-16T12:28:06.517Z,2.75
2023-04-16T12:30:34.659Z,2.90
2023-04-16T12:33:16.559Z,3.92
2023-04-16T12:35:45.071Z,3.55
2023-04-16T12:38:15.094Z,5.28
2023-04-16T12:40:43.327Z,5.00
2023-04-16T12:43:12.784Z,4.00
2023-04-16T12:45:41.443Z,2.85
2023-04-16T12:48:09.528Z,2.63
2023-04-16T12:50:40.676Z,3.50
2023-04-16T12:53:08.725Z,3.38
2023-04-16T12:55:36.716Z,4.18
2023-04-16T12:58:04.704Z,4.90
2023-04-16T13:00:33.998Z,4.85
2023-04-16T13:03:02.105Z,3.78
2023-04-16T13:05:30.494Z,3.10
2023-04-16T13:07:58.529Z,4.72
2023-04-16T13:10:27.843Z,3.08
2023-04-16T13:12:56.050Z,3.05
2023-04-16T13:15:24.129Z,3.15
2023-04-16T13:17:53.562Z,9.60
2023-04-16T13:20:23.920Z,3.95
2023-04-16T13:22:52.589Z,3.03
2023-04-16T13:25:20.576Z,2.40
2023-04-16T13:27:48.541Z,2.72
2023-04-16T13:30:17.140Z,7.80
2023-04-16T13:32:45.526Z,3.25
2023-04-16T13:35:40.290Z,3.67
2023-04-16T13:38:08.256Z,2.15
2023-04-16T13:41:02.185Z,4.85
2023-04-16T13:43:55.268Z,3.90
2023-04-16T13:46:23.549Z,13.02
2023-04-16T13:48:51.593Z,2.58
2023-04-16T13:51:21.736Z,4.15
2023-04-16T13:53:49.949Z,2.25
2023-04-16T13:56:18.132Z,2.53
2023-04-16T13:58:46.342Z,2.95
2023-04-16T14:01:14.380Z,3.85
2023-04-16T14:03:42.562Z,2.90
2023-04-16T14:06:11.065Z,2.55
2023-04-16T14:09:06.134Z,4.00
2023-04-16T14:11:34.230Z,4.20
2023-04-16T14:14:02.323Z,5.25
2023-04-16T14:16:30.473Z,6.57
2023-04-16T14:18:58.555Z,2.75
2023-04-16T14:21:27.081Z,2.53
2023-04-16T14:23:55.154Z,2.80
2023-04-16T14:26:24.551Z,4.03
2023-04-16T14:28:52.777Z,3.25
2023-04-16T14:31:20.933Z,2.30
2023-04-16T14:33:52.657Z,5.15
2023-04-16T14:36:20.723Z,3.72
2023-04-16T14:38:49.320Z,4.32
2023-04-16T14:41:18.632Z,2.03
2023-04-16T14:43:48.112Z,2.17
2023-04-16T14:46:17.738Z,3.35
2023-04-16T14:48:46.269Z,5.30
2023-04-16T14:51:14.322Z,4.38
2023-04-16T14:53:42.403Z,3.03
2023-04-16T14:56:12.936Z,5.90
2023-04-16T14:58:42.998Z,4.47
2023-04-16T15:01:14.917Z,4.72
2023-04-16T15:03:44.209Z,3.10
2023-04-16T15:06:12.355Z,3.80
2023-04-16T15:08:40.621Z,3.97
2023-04-16T15:11:08.714Z,3.47
2023-04-16T15:13:36.682Z,4.90
2023-04-16T15:16:05.407Z,4.63
2023-04-16T15:18:34.837Z,3.15
2023-04-16T15:21:02.933Z,4.53
2023-04-16T15:23:33.822Z,3.30
2023-04-16T15:28:29.984Z,2.70
2023-04-16T15:30:58.686Z,2.95
2023-04-16T15:33:27.427Z,2.85
2023-04-16T15:35:56.933Z,2.78
2023-04-16T15:38:25.564Z,4.20
2023-04-16T15:40:53.657Z,2.00
2023-04-16T15:43:21.639Z,2.80
2023-04-16T15:45:49.789Z,1.45
2023-04-16T15:48:17.816Z,3.95
2023-04-16T15:50:45.846Z,8.60
2023-04-16T15:53:15.252Z,2.58
2023-04-16T15:55:44.106Z,3.58
2023-04-16T15:58:12.923Z,5.70
2023-04-16T16:00:41.446Z,2.00
2023-04-16T16:03:13.005Z,40.67
2023-04-16T16:05:41.474Z,5.05
2023-04-16T16:08:09.767Z,5.20
2023-04-16T16:10:40.958Z,4.60
2023-04-16T16:15:41.854Z,1.85
2023-04-16T16:18:09.994Z,2.88
2023-04-16T16:20:38.896Z,4.95
2023-04-16T16:23:07.204Z,5.80
2023-04-16T16:25:37.068Z,6.15
2023-04-16T16:28:06.852Z,2.17
2023-04-16T16:30:34.928Z,4.53
2023-04-16T16:33:03.077Z,3.25
2023-04-16T16:35:31.140Z,2.60
2023-04-16T16:37:59.482Z,3.28
2023-04-16T16:40:27.684Z,3.53
2023-04-16T16:42:55.772Z,3.42
2023-04-16T16:46:37.966Z,2.45
2023-04-16T16:49:09.446Z,4.22
2023-04-16T16:51:37.741Z,3.30
2023-04-16T16:54:05.788Z,5.35
2023-04-16T16:56:33.822Z,4.65
2023-04-16T16:59:02.708Z,5.80
2023-04-16T17:01:31.434Z,2.88
2023-04-16T17:03:59.720Z,2.15
2023-04-16T17:06:29.276Z,2.17
2023-04-16T17:08:57.384Z,4.10
2023-04-16T17:11:27.036Z,6.00
2023-04-16T17:13:55.398Z,3.83
2023-04-16T17:16:23.965Z,2.85
2023-04-16T17:18:52.128Z,4.45
2023-04-16T17:21:20.106Z,3.58
2023-04-16T17:23:49.735Z,3.75
2023-04-16T17:26:17.814Z,4.07
2023-04-16T17:28:45.881Z,3.85
2023-04-16T17:31:14.896Z,3.70
2023-04-16T17:33:43.444Z,2.33
2023-04-16T17:36:11.603Z,7.10
2023-04-16T17:38:40.074Z,6.32
2023-04-16T17:41:09.435Z,7.63
2023-04-16T17:43:37.449Z,3.30
2023-04-16T17:46:06.375Z,4.47
2023-04-16T17:48:34.349Z,3.80
2023-04-16T17:51:10.136Z,3.22
2023-04-16T17:53:38.321Z,3.00
2023-04-16T17:56:06.610Z,4.95
2023-04-16T17:58:36.149Z,5.80
2023-04-16T18:01:05.185Z,4.35
2023-04-16T18:03:33.981Z,3.75
2023-04-16T18:06:02.000Z,3.10
2023-04-16T18:08:29.982Z,4.43
2023-04-16T18:10:58.042Z,3.47
2023-04-16T18:13:26.125Z,6.88
2023-04-16T18:15:55.665Z,5.88
2023-04-16T18:19:14.459Z,4.20
2023-04-16T18:21:42.543Z,8.65
2023-04-16T18:24:11.101Z,3.55
2023-04-16T18:26:40.948Z,4.40
2023-04-16T18:29:09.390Z,3.80
2023-04-16T18:31:39.027Z,2.28
2023-04-16T18:34:07.206Z,2.80
2023-04-16T18:36:35.432Z,4.15
2023-04-16T18:39:03.724Z,2.78
2023-04-16T18:41:31.760Z,4.18
2023-04-16T18:43:59.815Z,5.35
2023-04-16T18:46:27.908Z,5.70
2023-04-16T18:48:59.006Z,5.15
2023-04-16T18:51:27.395Z,6.78
2023-04-16T18:53:55.500Z,4.15
2023-04-16T18:56:23.716Z,4.55
2023-04-16T19:03:36.662Z,5.32
2023-04-16T19:06:06.442Z,5.65
2023-04-16T19:08:34.598Z,5.88
2023-04-16T19:11:02.533Z,6.90
2023-04-16T19:13:32.319Z,4.07
2023-04-16T19:16:01.556Z,4.88
2023-04-16T19:18:29.638Z,6.32
2023-04-16T19:21:00.255Z,4.10
2023-04-16T19:23:29.924Z,3.55
2023-04-16T19:25:58.130Z,4.47
2023-04-16T19:28:26.555Z,5.50
2023-04-16T19:35:26.100Z,8.27
2023-04-16T19:37:56.217Z,3.72
2023-04-16T19:40:25.987Z,4.28
2023-04-16T19:42:54.900Z,4.80
2023-04-16T19:45:26.030Z,5.95
2023-04-16T19:47:54.453Z,6.18
2023-04-16T19:50:23.406Z,4.47
2023-04-16T19:52:51.635Z,5.97
2023-04-16T19:55:20.006Z,7.65
2023-04-16T19:57:50.192Z,5.97
2023-04-16T20:00:18.938Z,5.18
2023-04-16T20:02:47.041Z,5.13
2023-04-16T20:05:15.296Z,6.75
2023-04-16T20:07:43.298Z,4.72
2023-04-16T20:10:11.855Z,6.10
2023-04-16T20:12:39.824Z,4.07
2023-04-16T20:15:10.501Z,2.78
2023-04-16T20:17:38.600Z,6.90
2023-04-16T20:20:10.222Z,7.95
2023-04-16T20:22:38.365Z,6.05
2023-04-16T20:25:07.597Z,4.53
2023-04-16T20:27:35.904Z,5.18
2023-04-16T20:30:06.076Z,4.55
2023-04-16T20:32:35.565Z,8.30
2023-04-16T20:35:05.212Z,3.67
2023-04-16T20:37:38.039Z,9.15
2023-04-16T20:40:08.282Z,3.92
2023-04-16T20:42:36.460Z,5.97
2023-04-16T20:45:04.940Z,6.75
2023-04-16T20:47:34.770Z,2.47
2023-04-16T20:50:04.562Z,6.17
2023-04-16T20:52:32.656Z,5.55
2023-04-16T20:55:00.737Z,7.20
2023-04-16T20:57:29.761Z,6.93
2023-04-16T20:59:58.465Z,5.10
2023-04-16T21:02:34.717Z,5.47
2023-04-16T21:05:06.351Z,2.83
2023-04-16T21:07:36.383Z,3.50
2023-04-16T21:10:05.120Z,5.40
2023-04-16T21:12:33.127Z,5.53
2023-04-16T21:15:01.351Z,4.18
2023-04-16T21:17:29.470Z,7.90
2023-04-16T21:19:57.434Z,3.28
2023-04-16T21:22:26.761Z,4.53
2023-04-16T21:24:54.663Z,4.35
2023-04-16T21:27:22.705Z,4.35
2023-04-16T21:29:50.935Z,4.68
2023-04-16T21:32:19.020Z,6.03
2023-04-16T21:34:47.035Z,4.13
2023-04-16T21:37:14.994Z,5.82
2023-04-16T21:39:44.453Z,4.80
2023-04-16T21:42:12.651Z,5.93
2023-04-16T21:44:40.704Z,5.03
2023-04-16T21:47:08.679Z,7.30
2023-04-16T21:49:36.635Z,5.45
2023-04-16T21:52:04.778Z,3.67
2023-04-16T21:54:32.737Z,4.15
2023-04-16T21:57:02.012Z,6.43
2023-04-16T21:59:30.138Z,5.22
2023-04-16T22:01:58.241Z,7.20
2023-04-16T22:04:36.986Z,3.35
2023-04-16T22:14:27.784Z,6.65
2023-04-16T22:16:56.469Z,5.87
2023-04-16T22:19:24.571Z,5.82
2023-04-16T22:21:52.601Z,5.15
2023-04-16T22:24:20.714Z,4.95
2023-04-16T22:26:48.691Z,5.22
2023-04-16T22:29:16.746Z,4.18
2023-04-16T22:31:47.711Z,5.72
2023-04-16T22:34:15.734Z,3.38
2023-04-16T22:36:43.714Z,4.38
2023-04-16T22:39:11.963Z,4.03
2023-04-16T22:41:40.469Z,5.30
2023-04-16T22:44:08.541Z,4.45
2023-04-16T22:46:37.079Z,4.97
2023-04-16T22:49:06.515Z,6.65
2023-04-16T22:51:34.437Z,5.07
2023-04-16T22:54:02.404Z,5.47
2023-04-16T22:56:31.112Z,3.78
2023-04-16T22:58:59.058Z,5.70
2023-04-16T23:01:52.499Z,4.55
2023-04-16T23:04:22.155Z,4.63
2023-04-16T23:06:50.441Z,4.22
2023-04-16T23:09:18.709Z,4.47
2023-04-16T23:11:46.661Z,5.13
2023-04-16T23:14:16.824Z,8.73
2023-04-16T23:16:44.968Z,5.05
2023-04-16T23:19:15.125Z,4.70
2023-04-16T23:21:44.662Z,4.47
2023-04-16T23:24:12.729Z,3.85
2023-04-16T23:26:40.855Z,4.50
2023-04-16T23:29:08.973Z,4.88
2023-04-16T23:31:37.143Z,5.07
2023-04-16T23:34:05.187Z,3.83
2023-04-16T23:36:33.088Z,5.43
2023-04-16T23:39:02.416Z,4.47
2023-04-16T23:41:30.344Z,3.97
2023-04-16T23:43:59.071Z,4.90
2023-04-16T23:46:27.219Z,6.88
2023-04-16T23:48:55.857Z,4.82
2023-04-16T23:51:23.860Z,3.88
2023-04-16T23:53:51.840Z,7.32
2023-04-16T23:56:21.202Z,6.88
2023-04-16T23:58:49.176Z,4.53
